Carterville, Mississippi
Current Conditions -  °F | °C
As of 5:53 AM on Monday 22 Dec 2014 (Local Time) from KHBG Reporting Station
Moderate Fog Moderate Fog  
Wind Chill: 54°   Ceiling: 200
Heat Index: 54°   Visibility: 0.5mi
Dew Point: 54°   Wind: 3mph
Humidity: 100%   Direction: 100°E
Pressure: 29.88"   Gusts: NA
Location:  31.1996°N, 89.2694°W
Report Text: KHBG 221153Z AUTO 10003KT 1/2SM FG VV002 12/12 A2988 RMK AO2 SLP118 60000 T01220122 10122 20111 55009
Loading
Personal Weather Stations






























Interactive Weather Map New forecast layout! Learn more

10-Day Weather Forecast

Advertisements
Track Severe Weather on mobile